createdAt,value
2017-05-30T00:00:01.982Z,17.79
2017-05-30T00:00:14.504Z,17.77
2017-05-30T00:00:27.588Z,17.73
2017-05-30T00:00:41.021Z,17.66
2017-05-30T00:00:53.969Z,17.73
2017-05-30T00:01:06.903Z,17.76
2017-05-30T00:01:19.801Z,17.69
2017-05-30T00:01:33.206Z,17.8
2017-05-30T00:01:45.598Z,17.81
2017-05-30T00:01:58.954Z,17.8
2017-05-30T00:02:11.870Z,17.76
2017-05-30T00:02:24.757Z,17.74
2017-05-30T00:02:37.606Z,17.77
2017-05-30T00:02:51.069Z,17.74
2017-05-30T00:03:04.506Z,17.74
2017-05-30T00:03:17.965Z,17.81
2017-05-30T00:03:30.890Z,17.81
2017-05-30T00:03:44.243Z,17.76
2017-05-30T00:03:57.172Z,17.8
2017-05-30T00:04:10.164Z,17.83
2017-05-30T00:04:22.516Z,17.8
2017-05-30T00:04:35.403Z,17.84
2017-05-30T00:04:48.816Z,17.83
2017-05-30T00:05:02.246Z,17.83
2017-05-30T00:05:15.220Z,17.84
2017-05-30T00:05:27.540Z,17.81
2017-05-30T00:05:40.359Z,17.81
2017-05-30T00:05:53.771Z,17.81
2017-05-30T00:06:07.219Z,17.83
2017-05-30T00:06:20.791Z,17.8
2017-05-30T00:06:33.773Z,17.8
2017-05-30T00:06:47.212Z,17.81
2017-05-30T00:07:00.580Z,17.83
2017-05-30T00:07:12.955Z,17.86
2017-05-30T00:07:25.969Z,17.8
2017-05-30T00:07:38.809Z,17.74
2017-05-30T00:07:52.256Z,17.79
2017-05-30T00:08:05.684Z,17.81
2017-05-30T00:08:18.765Z,17.84
2017-05-30T00:08:31.754Z,17.8
2017-05-30T00:08:45.198Z,17.81
2017-05-30T00:08:58.624Z,17.81
2017-05-30T00:09:11.655Z,17.79
2017-05-30T00:09:25.160Z,17.87
2017-05-30T00:09:39.099Z,17.83
2017-05-30T00:09:52.520Z,17.81
2017-05-30T00:10:06.048Z,17.84
2017-05-30T00:10:18.921Z,17.8
2017-05-30T00:10:31.381Z,17.79
2017-05-30T00:10:44.256Z,17.87
2017-05-30T00:10:57.705Z,17.74
2017-05-30T00:11:10.660Z,17.8
2017-05-30T00:11:23.571Z,17.83
2017-05-30T00:11:37.095Z,17.83
2017-05-30T00:11:49.899Z,17.81
2017-05-30T00:12:04.171Z,17.83
2017-05-30T00:12:17.570Z,17.83
2017-05-30T00:12:31.152Z,17.81
2017-05-30T00:12:44.027Z,17.83
2017-05-30T00:12:56.372Z,17.84
2017-05-30T00:13:09.884Z,17.84
2017-05-30T00:13:23.320Z,17.86
2017-05-30T00:13:36.713Z,17.77
2017-05-30T00:13:50.093Z,17.77
2017-05-30T00:14:03.009Z,17.8
2017-05-30T00:14:15.952Z,17.86
2017-05-30T00:14:28.868Z,17.79
2017-05-30T00:14:41.809Z,17.76
2017-05-30T00:14:54.698Z,17.77
2017-05-30T00:15:08.095Z,17.79
2017-05-30T00:15:21.008Z,17.84
2017-05-30T00:15:33.421Z,17.8
2017-05-30T00:15:46.875Z,17.79
2017-05-30T00:16:00.382Z,17.81
2017-05-30T00:16:12.858Z,17.81
2017-05-30T00:16:25.895Z,17.95
2017-05-30T00:16:39.265Z,17.94
2017-05-30T00:16:52.617Z,17.81
2017-05-30T00:17:05.763Z,17.8
2017-05-30T00:17:18.776Z,17.81
2017-05-30T00:17:32.142Z,17.84
2017-05-30T00:17:45.297Z,17.95
2017-05-30T00:17:59.094Z,17.94
2017-05-30T00:18:11.471Z,17.86
2017-05-30T00:18:24.939Z,17.84
2017-05-30T00:18:38.436Z,17.95
2017-05-30T00:18:51.858Z,17.9
2017-05-30T00:19:05.257Z,17.81
2017-05-30T00:19:18.242Z,17.92
2017-05-30T00:19:31.978Z,17.98
2017-05-30T00:19:45.439Z,17.99
2017-05-30T00:19:58.910Z,17.94
2017-05-30T00:20:12.310Z,17.92
2017-05-30T00:20:32.880Z,17.92
2017-05-30T00:20:46.970Z,17.96
2017-05-30T00:21:00.458Z,17.99
2017-05-30T00:21:14.364Z,17.95
2017-05-30T00:21:27.378Z,17.92
2017-05-30T00:21:40.761Z,17.95
2017-05-30T00:21:53.721Z,17.96
2017-05-30T00:22:12.489Z,17.96
2017-05-30T00:22:27.168Z,17.96
2017-05-30T00:22:40.639Z,18.01
2017-05-30T00:22:54.154Z,17.88
2017-05-30T00:23:07.083Z,17.95
2017-05-30T00:23:19.585Z,17.96
2017-05-30T00:23:33.750Z,17.99
2017-05-30T00:23:47.156Z,17.95
2017-05-30T00:24:00.264Z,17.95
2017-05-30T00:24:13.252Z,17.95
2017-05-30T00:24:27.686Z,17.9
2017-05-30T00:24:42.009Z,17.86
2017-05-30T00:24:55.964Z,17.9
2017-05-30T00:25:10.830Z,17.8
2017-05-30T00:25:26.117Z,17.8
2017-05-30T00:25:39.917Z,17.79
2017-05-30T00:25:52.845Z,17.8
2017-05-30T00:26:06.261Z,17.77
2017-05-30T00:26:35.737Z,17.83
2017-05-30T00:26:49.151Z,17.83
2017-05-30T00:27:03.072Z,17.81
2017-05-30T00:27:16.610Z,17.8
2017-05-30T00:27:36.415Z,17.73
2017-05-30T00:27:49.835Z,17.76
2017-05-30T00:28:14.398Z,17.73
2017-05-30T00:28:28.207Z,17.77
2017-05-30T00:28:43.823Z,17.66
2017-05-30T00:28:58.921Z,17.79
2017-05-30T00:29:13.322Z,17.76
2017-05-30T00:29:26.807Z,17.81
2017-05-30T00:29:40.868Z,17.74
2017-05-30T00:29:54.324Z,17.81
2017-05-30T00:30:08.474Z,17.65
2017-05-30T00:30:22.656Z,17.65
2017-05-30T00:30:37.032Z,17.65
2017-05-30T00:30:50.549Z,17.62
2017-05-30T00:31:04.010Z,17.66
2017-05-30T00:31:16.975Z,17.65
2017-05-30T00:31:31.283Z,17.62
2017-05-30T00:31:44.194Z,17.73
2017-05-30T00:31:57.606Z,17.68
2017-05-30T00:32:19.983Z,17.66
2017-05-30T00:32:32.916Z,17.62
2017-05-30T00:32:46.389Z,17.68
2017-05-30T00:32:59.839Z,17.73
2017-05-30T00:33:16.528Z,17.66
2017-05-30T00:33:30.762Z,17.68
2017-05-30T00:33:44.176Z,17.63
2017-05-30T00:33:57.142Z,17.73
2017-05-30T00:34:10.080Z,17.69
2017-05-30T00:34:24.408Z,17.66
2017-05-30T00:34:37.230Z,17.73
2017-05-30T00:34:50.113Z,17.77
2017-05-30T00:35:03.635Z,17.68
2017-05-30T00:35:17.001Z,17.71
2017-05-30T00:35:29.957Z,17.68
2017-05-30T00:35:44.667Z,17.66
2017-05-30T00:35:58.824Z,17.66
2017-05-30T00:36:12.369Z,17.69
2017-05-30T00:36:35.970Z,17.71
2017-05-30T00:36:54.501Z,17.73
2017-05-30T00:37:08.455Z,17.66
2017-05-30T00:37:21.394Z,17.66
2017-05-30T00:37:35.747Z,17.68
2017-05-30T00:37:49.392Z,17.65
2017-05-30T00:38:02.834Z,17.71
2017-05-30T00:38:15.666Z,17.68
2017-05-30T00:38:30.042Z,17.66
2017-05-30T00:38:43.698Z,17.69
2017-05-30T00:38:57.230Z,17.66
2017-05-30T00:39:10.603Z,17.68
2017-05-30T00:39:24.109Z,17.68
2017-05-30T00:39:37.587Z,17.68
2017-05-30T00:39:51.329Z,17.71
2017-05-30T00:40:04.192Z,17.69
2017-05-30T00:40:40.880Z,17.65
2017-05-30T00:40:54.056Z,17.63
2017-05-30T00:41:07.966Z,17.63
2017-05-30T00:41:21.323Z,17.69
2017-05-30T00:41:34.677Z,17.57
2017-05-30T00:41:50.330Z,17.6
2017-05-30T00:42:03.266Z,17.58
2017-05-30T00:42:16.679Z,17.65
2017-05-30T00:42:30.072Z,17.62
2017-05-30T00:42:43.527Z,17.6
2017-05-30T00:42:58.674Z,17.62
2017-05-30T00:43:18.260Z,17.6
2017-05-30T00:43:31.726Z,17.65
2017-05-30T00:43:49.904Z,17.65
2017-05-30T00:44:02.872Z,17.66
2017-05-30T00:44:16.267Z,17.66
2017-05-30T00:44:30.021Z,17.69
2017-05-30T00:44:43.482Z,17.69
2017-05-30T00:44:56.933Z,17.69
2017-05-30T00:45:10.350Z,17.68
2017-05-30T00:45:24.714Z,17.71
2017-05-30T00:45:38.101Z,17.77
2017-05-30T00:45:51.655Z,17.66
2017-05-30T00:46:04.694Z,17.69
2017-05-30T00:46:17.647Z,17.65
2017-05-30T00:46:31.709Z,17.69
2017-05-30T00:46:45.200Z,17.74
2017-05-30T00:46:58.118Z,17.66
2017-05-30T00:47:11.494Z,17.65
2017-05-30T00:47:24.392Z,17.65
2017-05-30T00:47:36.749Z,17.68
2017-05-30T00:47:50.153Z,17.69
2017-05-30T00:48:03.009Z,17.69
2017-05-30T00:48:16.486Z,17.68
2017-05-30T00:48:29.942Z,17.68
2017-05-30T00:48:43.424Z,17.69
2017-05-30T00:48:56.905Z,17.66
2017-05-30T00:49:11.545Z,17.66
2017-05-30T00:49:25.029Z,17.66
2017-05-30T00:49:37.978Z,17.62
2017-05-30T00:49:51.432Z,17.62
2017-05-30T00:50:04.432Z,17.63
2017-05-30T00:50:17.821Z,17.63
2017-05-30T00:50:30.679Z,17.63
2017-05-30T00:50:43.015Z,17.62
2017-05-30T00:50:55.948Z,17.62
2017-05-30T00:51:09.315Z,17.58
2017-05-30T00:51:23.604Z,17.58
2017-05-30T00:51:37.059Z,17.57
2017-05-30T00:51:50.513Z,17.65
2017-05-30T00:52:03.239Z,17.66
2017-05-30T00:52:16.188Z,17.58
2017-05-30T00:52:29.128Z,17.6
2017-05-30T00:52:42.558Z,17.62
2017-05-30T00:52:56.015Z,17.58
2017-05-30T00:53:10.721Z,17.58
2017-05-30T00:53:24.323Z,17.58
2017-05-30T00:53:37.855Z,17.6
2017-05-30T00:53:51.399Z,17.58
2017-05-30T00:54:04.339Z,17.52
2017-05-30T00:54:17.917Z,17.6
2017-05-30T00:54:30.766Z,17.62
2017-05-30T00:54:44.244Z,17.6
2017-05-30T00:54:57.810Z,17.55
2017-05-30T00:55:10.243Z,17.57
2017-05-30T00:55:23.255Z,17.58
2017-05-30T00:55:59.515Z,17.54
2017-05-30T00:56:14.367Z,17.57
2017-05-30T00:56:39.493Z,17.57
2017-05-30T00:57:05.700Z,17.63
2017-05-30T00:57:19.649Z,17.6
2017-05-30T00:57:34.568Z,17.55
2017-05-30T00:57:48.907Z,17.58
2017-05-30T00:58:31.576Z,17.55
2017-05-30T00:58:45.596Z,17.62
2017-05-30T00:58:58.979Z,17.57
2017-05-30T00:59:12.371Z,17.54
2017-05-30T00:59:27.348Z,17.52
2017-05-30T00:59:41.032Z,17.55
2017-05-30T00:59:53.961Z,17.55
2017-05-30T01:00:07.491Z,17.5
2017-05-30T01:00:26.869Z,17.52
2017-05-30T01:01:09.566Z,17.52
2017-05-30T01:01:22.684Z,17.55
2017-05-30T01:01:36.527Z,17.5
2017-05-30T01:01:50.737Z,17.57
2017-05-30T01:02:04.164Z,17.52
2017-05-30T01:02:18.793Z,17.43
2017-05-30T01:02:30.908Z,17.42
2017-05-30T01:02:50.559Z,17.42
2017-05-30T01:03:04.028Z,17.42
2017-05-30T01:03:27.819Z,17.38
2017-05-30T01:03:45.273Z,17.45
2017-05-30T01:03:58.912Z,17.39
2017-05-30T01:04:15.375Z,17.43
2017-05-30T01:04:31.664Z,17.45
2017-05-30T01:04:57.837Z,17.36
2017-05-30T01:05:47.449Z,17.32
2017-05-30T01:05:59.892Z,17.4
2017-05-30T01:06:17.265Z,17.35
2017-05-30T01:06:32.354Z,17.35
2017-05-30T01:06:45.738Z,17.35
2017-05-30T01:07:03.227Z,17.35
2017-05-30T01:07:20.724Z,17.39
2017-05-30T01:07:34.188Z,17.39
2017-05-30T01:07:48.312Z,17.35
2017-05-30T01:08:03.419Z,17.36
2017-05-30T01:08:18.139Z,17.38
2017-05-30T01:08:41.925Z,17.38
2017-05-30T01:09:01.233Z,17.39
2017-05-30T01:09:16.260Z,17.39
2017-05-30T01:09:48.347Z,17.39
2017-05-30T01:10:01.916Z,17.31
2017-05-30T01:10:21.332Z,17.38
2017-05-30T01:10:35.447Z,17.39
2017-05-30T01:10:49.142Z,17.36
2017-05-30T01:11:03.888Z,17.38
2017-05-30T01:11:18.523Z,17.32
2017-05-30T01:11:34.293Z,17.38
2017-05-30T01:11:47.169Z,17.38
2017-05-30T01:12:21.535Z,17.38
2017-05-30T01:12:34.384Z,17.39
2017-05-30T01:12:47.877Z,17.36
2017-05-30T01:13:01.370Z,17.38
2017-05-30T01:13:14.300Z,17.39
2017-05-30T01:13:27.693Z,17.25
2017-05-30T01:13:41.083Z,17.43
2017-05-30T01:13:54.786Z,17.3
2017-05-30T01:14:07.720Z,17.27
2017-05-30T01:14:21.136Z,17.27
2017-05-30T01:14:34.037Z,17.27
2017-05-30T01:14:47.406Z,17.28
2017-05-30T01:15:00.904Z,17.22
2017-05-30T01:15:14.314Z,17.27
2017-05-30T01:15:27.894Z,17.31
2017-05-30T01:15:41.390Z,17.2
2017-05-30T01:15:54.271Z,17.25
2017-05-30T01:16:07.099Z,17.3
2017-05-30T01:16:20.031Z,17.25
2017-05-30T01:16:33.462Z,17.17
2017-05-30T01:16:46.826Z,17.15
2017-05-30T01:17:00.313Z,17.18
2017-05-30T01:17:13.265Z,17.25
2017-05-30T01:17:26.709Z,17.27
2017-05-30T01:17:40.120Z,17.24
2017-05-30T01:17:53.576Z,17.22
2017-05-30T01:18:07.737Z,17.2
2017-05-30T01:18:20.682Z,17.22
2017-05-30T01:18:33.998Z,17.22
2017-05-30T01:18:46.896Z,17.25
2017-05-30T01:19:00.271Z,17.2
2017-05-30T01:19:15.483Z,17.18
2017-05-30T01:19:28.988Z,17.22
2017-05-30T01:19:41.955Z,17.2
2017-05-30T01:19:55.454Z,17.27
2017-05-30T01:20:07.846Z,17.25
2017-05-30T01:20:20.775Z,17.22
2017-05-30T01:20:33.718Z,17.17
2017-05-30T01:20:47.150Z,17.2
2017-05-30T01:21:00.168Z,17.17
2017-05-30T01:21:13.089Z,17.15
2017-05-30T01:21:24.959Z,17.22
2017-05-30T01:21:38.215Z,17.18
2017-05-30T01:21:51.138Z,17.22
2017-05-30T01:22:04.029Z,17.2
2017-05-30T01:22:16.493Z,17.15
2017-05-30T01:22:29.885Z,17.21
2017-05-30T01:22:44.538Z,17.13
2017-05-30T01:22:58.095Z,17.22
2017-05-30T01:23:11.035Z,17.17
2017-05-30T01:23:23.961Z,17.28
2017-05-30T01:23:37.449Z,17.28
2017-05-30T01:23:50.974Z,17.22
2017-05-30T01:24:04.418Z,17.13
2017-05-30T01:24:17.383Z,17.27
2017-05-30T01:24:30.858Z,17.2
2017-05-30T01:24:43.208Z,17.24
2017-05-30T01:24:56.630Z,17.15
2017-05-30T01:25:10.028Z,17.18
2017-05-30T01:25:23.617Z,17.12
2017-05-30T01:25:37.163Z,17.2
2017-05-30T01:25:50.023Z,17.2
2017-05-30T01:26:03.406Z,17.15
2017-05-30T01:26:16.329Z,17.18
2017-05-30T01:26:29.752Z,17.22
2017-05-30T01:26:42.225Z,17.17
2017-05-30T01:26:55.694Z,17.17
2017-05-30T01:27:09.126Z,17.18
2017-05-30T01:27:22.503Z,17.15
2017-05-30T01:27:35.917Z,17.24
2017-05-30T01:27:49.372Z,17.17
2017-05-30T01:28:02.762Z,17.15
2017-05-30T01:28:15.573Z,17.18
2017-05-30T01:28:28.998Z,17.12
2017-05-30T01:28:42.561Z,17.2
2017-05-30T01:28:56.299Z,17.17
2017-05-30T01:29:09.867Z,17.2
2017-05-30T01:29:23.322Z,17.12
2017-05-30T01:29:36.238Z,17.13
2017-05-30T01:29:49.972Z,17.06
2017-05-30T01:30:03.369Z,17.06
2017-05-30T01:30:16.924Z,17.09
2017-05-30T01:30:32.266Z,17.12
2017-05-30T01:30:50.759Z,17.02
2017-05-30T01:31:03.707Z,17.05
2017-05-30T01:31:16.610Z,16.99
2017-05-30T01:31:30.069Z,17.02
2017-05-30T01:31:43.788Z,17.07
2017-05-30T01:31:56.231Z,17
2017-05-30T01:32:09.643Z,17.05
2017-05-30T01:32:23.844Z,17.02
2017-05-30T01:32:38.565Z,17
2017-05-30T01:32:52.504Z,17
2017-05-30T01:33:06.071Z,17
2017-05-30T01:33:19.571Z,16.95
2017-05-30T01:33:33.251Z,17.03
2017-05-30T01:33:46.250Z,16.95
2017-05-30T01:33:58.700Z,16.99
2017-05-30T01:34:12.201Z,17
2017-05-30T01:34:26.883Z,17.02
2017-05-30T01:34:39.318Z,16.99
2017-05-30T01:34:52.782Z,17.05
2017-05-30T01:35:06.366Z,17
2017-05-30T01:35:19.869Z,16.97
2017-05-30T01:35:32.814Z,16.97
2017-05-30T01:35:46.919Z,17.05
2017-05-30T01:36:00.319Z,16.99
2017-05-30T01:36:15.155Z,16.94
2017-05-30T01:36:28.652Z,17.02
2017-05-30T01:36:42.342Z,17.03
2017-05-30T01:36:55.348Z,17.03
2017-05-30T01:37:08.359Z,17.02
2017-05-30T01:37:26.680Z,17.07
2017-05-30T01:37:40.084Z,16.99
2017-05-30T01:37:53.111Z,17.02
2017-05-30T01:38:07.310Z,17.03
2017-05-30T01:38:23.766Z,16.99
2017-05-30T01:38:50.545Z,16.97
2017-05-30T01:39:09.401Z,17.06
2017-05-30T01:39:22.574Z,17.07
2017-05-30T01:39:36.074Z,17.05
2017-05-30T01:39:49.730Z,16.99
2017-05-30T01:40:03.214Z,17
2017-05-30T01:40:16.168Z,17
2017-05-30T01:40:29.155Z,16.99
2017-05-30T01:40:42.593Z,17.05
2017-05-30T01:40:56.086Z,16.94
2017-05-30T01:41:09.501Z,17.05
2017-05-30T01:41:21.823Z,16.99
2017-05-30T01:41:35.336Z,16.97
2017-05-30T01:41:48.813Z,16.94
2017-05-30T01:42:02.289Z,16.95
2017-05-30T01:42:15.774Z,16.94
2017-05-30T01:42:29.267Z,16.95
2017-05-30T01:42:42.672Z,16.92
2017-05-30T01:42:56.131Z,16.97
2017-05-30T01:43:09.621Z,16.95
2017-05-30T01:43:23.035Z,16.97
2017-05-30T01:43:36.528Z,16.92
2017-05-30T01:43:49.444Z,16.97
2017-05-30T01:44:02.908Z,16.95
2017-05-30T01:44:16.565Z,16.95
2017-05-30T01:44:29.974Z,17
2017-05-30T01:44:43.528Z,16.97
2017-05-30T01:44:56.957Z,16.97
2017-05-30T01:45:10.358Z,17.03
2017-05-30T01:45:22.727Z,16.95
2017-05-30T01:45:36.817Z,17
2017-05-30T01:45:50.236Z,17.02
2017-05-30T01:46:02.687Z,17.02
2017-05-30T01:46:16.213Z,17.07
2017-05-30T01:46:29.157Z,17.05
2017-05-30T01:46:42.053Z,17.05
2017-05-30T01:46:54.437Z,17
2017-05-30T01:47:07.370Z,17.03
2017-05-30T01:47:20.278Z,17.02
2017-05-30T01:47:33.680Z,16.97
2017-05-30T01:47:47.083Z,17.02
2017-05-30T01:47:59.969Z,16.97
2017-05-30T01:48:13.342Z,17.05
2017-05-30T01:48:25.784Z,16.97
2017-05-30T01:48:38.324Z,17
2017-05-30T01:48:51.257Z,17.03
2017-05-30T01:49:03.601Z,16.97
2017-05-30T01:49:17.006Z,17.03
2017-05-30T01:49:30.417Z,17.02
2017-05-30T01:49:42.770Z,17
2017-05-30T01:49:56.197Z,17.03
2017-05-30T01:50:09.076Z,16.99
2017-05-30T01:50:21.444Z,17.03
2017-05-30T01:50:34.904Z,17
2017-05-30T01:50:47.794Z,17.02
2017-05-30T01:51:01.323Z,16.99
2017-05-30T01:51:14.334Z,16.95
2017-05-30T01:51:27.760Z,16.99
2017-05-30T01:51:41.185Z,16.95
2017-05-30T01:51:57.625Z,17
2017-05-30T01:52:10.472Z,16.97
2017-05-30T01:52:27.742Z,16.97
2017-05-30T01:52:41.301Z,16.94
2017-05-30T01:52:53.664Z,16.99
2017-05-30T01:53:06.130Z,17
2017-05-30T01:53:19.118Z,17
2017-05-30T01:53:32.124Z,16.91
2017-05-30T01:53:45.684Z,17.05
2017-05-30T01:53:58.584Z,16.95
2017-05-30T01:54:12.021Z,17
2017-05-30T01:54:24.985Z,16.88
2017-05-30T01:54:38.899Z,16.94
2017-05-30T01:54:52.372Z,16.95
2017-05-30T01:55:05.747Z,17
2017-05-30T01:55:18.779Z,16.92
2017-05-30T01:55:32.198Z,16.92
2017-05-30T01:55:45.604Z,16.95
2017-05-30T01:55:58.573Z,16.9
2017-05-30T01:56:12.007Z,16.92
2017-05-30T01:56:29.153Z,16.91
2017-05-30T01:56:42.623Z,16.88
2017-05-30T01:56:55.969Z,16.95
2017-05-30T01:57:13.869Z,16.9
2017-05-30T01:57:27.313Z,16.88
2017-05-30T01:57:40.860Z,16.84
2017-05-30T01:57:54.347Z,16.91
2017-05-30T01:58:07.836Z,16.97
2017-05-30T01:58:20.786Z,16.9
2017-05-30T01:58:33.627Z,16.97
2017-05-30T01:58:59.352Z,16.82
2017-05-30T01:59:12.956Z,16.8
2017-05-30T02:03:30.661Z,16.8
2017-05-30T02:03:44.162Z,16.8
2017-05-30T02:04:19.879Z,16.74
2017-05-30T02:04:33.679Z,16.74
2017-05-30T02:04:47.276Z,16.76
2017-05-30T02:05:00.250Z,16.82
2017-05-30T02:05:19.048Z,16.67
2017-05-30T02:05:33.146Z,16.72
2017-05-30T02:05:52.876Z,16.69
2017-05-30T02:06:06.898Z,16.72
2017-05-30T02:06:19.849Z,16.76
2017-05-30T02:06:34.694Z,16.66
2017-05-30T02:06:48.447Z,16.69
2017-05-30T02:07:01.873Z,16.72
2017-05-30T02:07:14.811Z,16.74
2017-05-30T02:07:27.685Z,16.62
2017-05-30T02:07:41.094Z,16.65
2017-05-30T02:07:54.495Z,16.58
2017-05-30T02:08:30.646Z,16.7
2017-05-30T02:08:45.225Z,16.77
2017-05-30T02:08:59.878Z,16.74
2017-05-30T02:09:14.469Z,16.7
2017-05-30T02:09:34.082Z,16.84
2017-05-30T02:09:47.583Z,16.82
2017-05-30T02:10:06.065Z,16.87
2017-05-30T02:10:18.963Z,16.8
2017-05-30T02:10:32.365Z,16.92
2017-05-30T02:10:47.700Z,16.84
2017-05-30T02:11:01.760Z,16.9
2017-05-30T02:11:16.265Z,16.88
2017-05-30T02:11:29.898Z,16.94
2017-05-30T02:11:43.262Z,16.88
2017-05-30T02:11:56.746Z,16.95
2017-05-30T02:12:14.771Z,16.91
2017-05-30T02:12:41.808Z,16.92
2017-05-30T02:13:02.331Z,17
2017-05-30T02:13:59.392Z,16.95
2017-05-30T02:14:12.441Z,17.05
2017-05-30T02:14:25.249Z,16.99
2017-05-30T02:14:38.359Z,17.03
2017-05-30T02:14:51.731Z,16.99
2017-05-30T02:15:05.200Z,17
2017-05-30T02:15:17.777Z,16.99
2017-05-30T02:15:30.374Z,16.97
2017-05-30T02:15:43.905Z,17.07
2017-05-30T02:15:56.806Z,17.03
2017-05-30T02:16:10.252Z,17.02
2017-05-30T02:16:23.128Z,17
2017-05-30T02:16:36.530Z,17
2017-05-30T02:16:50.051Z,17.03
2017-05-30T02:17:15.758Z,17.05
2017-05-30T02:17:29.243Z,16.99
2017-05-30T02:17:42.148Z,16.99
2017-05-30T02:17:55.592Z,16.97
2017-05-30T02:18:09.025Z,17.02
2017-05-30T02:18:23.517Z,17.03
2017-05-30T02:18:36.943Z,17.05
2017-05-30T02:18:50.397Z,17.02
2017-05-30T02:19:03.366Z,16.99
2017-05-30T02:19:16.814Z,16.95
2017-05-30T02:19:30.200Z,16.99
2017-05-30T02:19:43.578Z,16.95
2017-05-30T02:19:57.054Z,16.95
2017-05-30T02:20:10.487Z,17.02
2017-05-30T02:20:29.609Z,16.99
2017-05-30T02:20:43.039Z,16.97
2017-05-30T02:20:57.655Z,17
2017-05-30T02:21:13.682Z,17.02
2017-05-30T02:21:42.475Z,16.88
2017-05-30T02:21:56.564Z,16.95
2017-05-30T02:22:25.201Z,17
2017-05-30T02:22:38.116Z,16.95
2017-05-30T02:23:22.286Z,16.92
2017-05-30T02:23:35.965Z,16.94
2017-05-30T02:23:49.325Z,16.99
2017-05-30T02:24:07.022Z,16.95
2017-05-30T02:24:24.299Z,16.92
2017-05-30T02:25:04.199Z,16.92
2017-05-30T02:25:39.146Z,16.91
2017-05-30T02:25:55.736Z,16.94
2017-05-30T02:26:09.164Z,16.95
2017-05-30T02:26:24.007Z,16.81
2017-05-30T02:26:37.356Z,16.88
2017-05-30T02:26:50.756Z,16.84
2017-05-30T02:27:08.649Z,16.77
2017-05-30T02:27:22.127Z,16.84
2017-05-30T02:27:38.258Z,16.87
2017-05-30T02:27:51.608Z,16.84
2017-05-30T02:28:06.264Z,16.85
2017-05-30T02:28:19.217Z,16.87
2017-05-30T02:28:32.659Z,16.77
2017-05-30T02:28:45.612Z,16.85
2017-05-30T02:29:29.944Z,16.72
2017-05-30T02:29:43.332Z,16.84
2017-05-30T02:29:56.820Z,16.74
2017-05-30T02:30:10.535Z,16.8
2017-05-30T02:30:23.908Z,16.72
2017-05-30T02:30:36.812Z,16.73
2017-05-30T02:30:49.672Z,16.77
2017-05-30T02:31:02.654Z,16.66
2017-05-30T02:31:16.070Z,16.7
2017-05-30T02:31:28.947Z,16.73
2017-05-30T02:31:43.761Z,16.69
2017-05-30T02:31:57.880Z,16.63
2017-05-30T02:32:11.310Z,16.67
2017-05-30T02:32:24.620Z,16.72
2017-05-30T02:32:38.030Z,16.74
2017-05-30T02:32:52.073Z,16.8
2017-05-30T02:33:04.421Z,16.74
2017-05-30T02:33:17.349Z,16.72
2017-05-30T02:33:36.013Z,16.73
2017-05-30T02:33:49.478Z,16.81
2017-05-30T02:34:02.939Z,16.73
2017-05-30T02:34:16.375Z,16.84
2017-05-30T02:34:29.313Z,16.76
2017-05-30T02:34:42.674Z,16.87
2017-05-30T02:34:57.558Z,16.87
2017-05-30T02:35:10.607Z,16.87
2017-05-30T02:35:27.013Z,16.84
2017-05-30T02:35:39.883Z,16.9
2017-05-30T02:35:53.406Z,16.87
2017-05-30T02:36:11.479Z,16.84
2017-05-30T02:36:23.931Z,16.9
2017-05-30T02:36:37.399Z,16.92
2017-05-30T02:36:50.312Z,16.91
2017-05-30T02:37:13.673Z,16.91
2017-05-30T02:37:29.930Z,16.9
2017-05-30T02:37:42.833Z,16.8
2017-05-30T02:37:59.365Z,16.94
2017-05-30T02:38:20.496Z,16.95
2017-05-30T02:38:33.607Z,16.91
2017-05-30T02:38:48.265Z,16.85
2017-05-30T02:39:01.659Z,16.88
2017-05-30T02:39:14.604Z,16.88
2017-05-30T02:39:28.148Z,16.84
2017-05-30T02:39:42.259Z,16.91
2017-05-30T02:39:59.339Z,16.8
2017-05-30T02:40:13.245Z,16.82
2017-05-30T02:40:26.715Z,16.87
2017-05-30T02:40:40.235Z,16.87
2017-05-30T02:40:53.602Z,16.87
2017-05-30T02:41:07.058Z,16.85
2017-05-30T02:41:20.502Z,16.84
2017-05-30T02:41:34.011Z,16.9
2017-05-30T02:41:46.903Z,16.76
2017-05-30T02:42:00.334Z,16.77
2017-05-30T02:42:13.759Z,16.77
2017-05-30T02:42:26.646Z,16.73
2017-05-30T02:42:40.118Z,16.76
2017-05-30T02:42:53.598Z,16.84
2017-05-30T02:43:07.073Z,16.85
2017-05-30T02:43:19.450Z,16.77
2017-05-30T02:43:32.804Z,16.73
2017-05-30T02:43:46.411Z,16.76
2017-05-30T02:43:59.896Z,16.76
2017-05-30T02:44:13.350Z,16.81
2017-05-30T02:44:26.336Z,16.8
2017-05-30T02:44:39.251Z,16.77
2017-05-30T02:44:52.119Z,16.76
2017-05-30T02:45:05.608Z,16.8
2017-05-30T02:45:18.933Z,16.66
2017-05-30T02:45:31.317Z,16.66
2017-05-30T02:45:44.757Z,16.74
2017-05-30T02:45:57.061Z,16.8
2017-05-30T02:46:10.427Z,16.72
2017-05-30T02:46:23.819Z,16.73
2017-05-30T02:46:36.759Z,16.73
2017-05-30T02:46:50.182Z,16.74
2017-05-30T02:47:03.606Z,16.73
2017-05-30T02:47:15.955Z,16.8
2017-05-30T02:47:28.286Z,16.77
2017-05-30T02:47:41.205Z,16.84
2017-05-30T02:47:54.744Z,16.82
2017-05-30T02:48:07.646Z,16.91
2017-05-30T02:48:21.579Z,16.84
2017-05-30T02:48:40.036Z,16.9
2017-05-30T02:48:53.529Z,16.87
2017-05-30T02:49:06.477Z,16.9
2017-05-30T02:49:20.029Z,16.85
2017-05-30T02:49:35.606Z,16.85
2017-05-30T02:49:48.415Z,16.87
2017-05-30T02:50:01.308Z,16.84
2017-05-30T02:50:14.783Z,16.9
2017-05-30T02:50:27.720Z,16.85
2017-05-30T02:50:41.996Z,16.87
2017-05-30T02:50:55.736Z,16.87
2017-05-30T02:51:09.235Z,16.76
2017-05-30T02:51:21.648Z,16.81
2017-05-30T02:51:35.408Z,16.8
2017-05-30T02:51:53.318Z,16.73
2017-05-30T02:52:07.490Z,16.72
2017-05-30T02:52:19.944Z,16.7
2017-05-30T02:52:34.095Z,16.84
2017-05-30T02:52:46.979Z,16.7
2017-05-30T02:52:59.337Z,16.81
2017-05-30T02:53:12.686Z,16.7
2017-05-30T02:53:26.116Z,16.74
2017-05-30T02:53:39.618Z,16.65
2017-05-30T02:53:53.013Z,16.66
2017-05-30T02:54:06.345Z,16.72
2017-05-30T02:54:19.311Z,16.73
2017-05-30T02:54:32.709Z,16.69
2017-05-30T02:54:46.153Z,16.7
2017-05-30T02:55:00.755Z,16.66
2017-05-30T02:55:15.534Z,16.63
2017-05-30T02:55:32.005Z,16.69
2017-05-30T02:55:45.369Z,16.74
2017-05-30T02:55:58.932Z,16.7
2017-05-30T02:56:11.933Z,16.72
2017-05-30T02:56:24.817Z,16.73
2017-05-30T02:56:37.667Z,16.72
2017-05-30T02:56:51.074Z,16.65
2017-05-30T02:57:04.524Z,16.69
2017-05-30T02:57:17.478Z,16.76
2017-05-30T02:57:30.819Z,16.69
2017-05-30T02:57:44.259Z,16.69
2017-05-30T02:57:58.439Z,16.69
2017-05-30T02:58:11.409Z,16.66
2017-05-30T02:58:24.272Z,16.7
2017-05-30T02:58:38.537Z,16.67
2017-05-30T02:58:51.493Z,16.65
2017-05-30T02:59:04.472Z,16.67
2017-05-30T02:59:16.856Z,16.73
2017-05-30T02:59:30.326Z,16.72
2017-05-30T02:59:43.240Z,16.69
2017-05-30T02:59:56.674Z,16.66
2017-05-30T03:00:10.042Z,16.73
2017-05-30T03:00:23.275Z,16.73
2017-05-30T03:00:36.720Z,16.69
2017-05-30T03:00:49.118Z,16.62
2017-05-30T03:01:03.912Z,16.67
2017-05-30T03:01:17.049Z,16.73
2017-05-30T03:01:30.545Z,16.69
2017-05-30T03:01:44.020Z,16.67
2017-05-30T03:01:57.406Z,16.66
2017-05-30T03:02:10.363Z,16.67
2017-05-30T03:02:23.734Z,16.7
2017-05-30T03:02:37.118Z,16.67
2017-05-30T03:02:50.022Z,16.69
2017-05-30T03:03:03.323Z,16.72
2017-05-30T03:03:16.758Z,16.72
2017-05-30T03:03:29.649Z,16.77
2017-05-30T03:03:43.086Z,16.73
2017-05-30T03:03:56.474Z,16.7
2017-05-30T03:04:10.019Z,16.77
2017-05-30T03:04:21.359Z,16.72
2017-05-30T03:04:34.426Z,16.7
2017-05-30T03:04:47.284Z,16.73
2017-05-30T03:05:00.172Z,16.77
2017-05-30T03:05:13.043Z,16.73
2017-05-30T03:05:25.401Z,16.69
2017-05-30T03:05:38.335Z,16.7
2017-05-30T03:05:51.284Z,16.72
2017-05-30T03:06:04.201Z,16.65
2017-05-30T03:06:17.567Z,16.69
2017-05-30T03:06:30.078Z,16.69
2017-05-30T03:06:42.969Z,16.7
2017-05-30T03:06:55.815Z,16.65
2017-05-30T03:07:09.202Z,16.7
2017-05-30T03:07:22.549Z,16.65
2017-05-30T03:07:35.939Z,16.67
2017-05-30T03:07:49.350Z,16.69
2017-05-30T03:08:01.705Z,16.72
2017-05-30T03:08:14.116Z,16.67
2017-05-30T03:08:26.487Z,16.69
2017-05-30T03:08:39.830Z,16.67
2017-05-30T03:08:53.190Z,16.67
2017-05-30T03:09:06.599Z,16.67
2017-05-30T03:09:20.007Z,16.7
2017-05-30T03:09:33.412Z,16.67
2017-05-30T03:09:46.938Z,16.67
2017-05-30T03:09:59.931Z,16.7
2017-05-30T03:10:13.442Z,16.66
2017-05-30T03:10:26.268Z,16.72
2017-05-30T03:10:39.666Z,16.73